Time;durP1;ratioP1;P1;durP2;ratioP2;P2;SDS_P1;SDS_P2;PMS_P1;PMS_P2;Temp;Humidity;BMP_temperature;BMP_pressure;BME280_temperature;BME280_humidity;BME280_pressure;Samples;Min_cycle;Max_cycle;Signal;HPM_P1;HPM_P2
2023/12/27 00:00:04;;;;;;;3.90;0.90;;;;;;;5.18;91.75;96589.61;108953;1271;24361;-79
2023/12/27 00:02:36;;;;;;;2.60;1.20;;;;;;;5.25;91.76;96590.77;108986;1271;22687;-79
2023/12/27 00:05:09;;;;;;;2.10;1.50;;;;;;;5.31;91.59;96585.09;108956;1264;22564;-79
2023/12/27 00:07:40;;;;;;;1.50;1.10;;;;;;;5.39;91.13;96575.77;109067;1271;25403;-78
2023/12/27 00:10:12;;;;;;;3.30;1.30;;;;;;;5.50;90.29;96586.58;108928;1271;23496;-78
2023/12/27 00:12:43;;;;;;;3.40;1.40;;;;;;;5.51;89.93;96592.91;109045;1269;24170;-79
2023/12/27 00:15:14;;;;;;;1.40;1.10;;;;;;;5.47;89.94;96598.46;108999;1264;25279;-79
2023/12/27 00:17:45;;;;;;;2.40;1.10;;;;;;;5.48;89.91;96598.31;108992;1271;22553;-79
2023/12/27 00:20:17;;;;;;;2.40;1.10;;;;;;;5.51;89.22;96600.27;108992;1271;22530;-79
2023/12/27 00:22:51;;;;;;;1.90;0.80;;;;;;;5.54;88.87;96596.15;108998;1271;25410;-79
2023/12/27 00:25:22;;;;;;;1.50;0.90;;;;;;;5.54;88.53;96606.19;109013;1271;22539;-79
2023/12/27 00:27:53;;;;;;;3.00;1.40;;;;;;;5.52;88.55;96603.90;109012;1271;25432;-79
2023/12/27 00:30:26;;;;;;;3.60;1.60;;;;;;;5.47;88.68;96605.95;109002;1271;25326;-80
2023/12/27 00:32:58;;;;;;;3.20;1.00;;;;;;;5.45;88.73;96606.23;108998;1268;22703;-74
2023/12/27 00:35:29;;;;;;;3.10;1.40;;;;;;;5.45;89.15;96601.86;108957;1271;22624;-74
2023/12/27 00:38:00;;;;;;;2.50;1.70;;;;;;;5.43;89.40;96615.63;108995;1271;22557;-75
2023/12/27 00:40:31;;;;;;;5.40;1.70;;;;;;;5.39;89.33;96621.89;108987;1271;22581;-75
2023/12/27 00:43:02;;;;;;;4.60;1.50;;;;;;;5.34;89.60;96610.93;108965;1271;22695;-75
2023/12/27 00:45:34;;;;;;;4.00;1.80;;;;;;;5.30;89.99;96626.87;109025;1261;22702;-79
2023/12/27 00:48:06;;;;;;;2.10;1.30;;;;;;;5.26;90.27;96630.40;109013;1271;25160;-79
2023/12/27 00:50:37;;;;;;;3.60;1.80;;;;;;;5.25;90.46;96643.05;108915;1271;23971;-79
2023/12/27 00:53:08;;;;;;;1.70;0.80;;;;;;;5.23;90.52;96652.23;108994;1264;22538;-78
2023/12/27 00:55:39;;;;;;;2.30;0.60;;;;;;;5.24;90.59;96647.45;109008;1266;24210;-78
2023/12/27 00:58:10;;;;;;;3.10;1.20;;;;;;;5.27;90.24;96653.55;108991;1268;22635;-78
2023/12/27 01:00:41;;;;;;;2.60;1.00;;;;;;;5.26;89.84;96660.78;109011;1271;26615;-79
2023/12/27 01:03:15;;;;;;;2.10;1.10;;;;;;;5.21;89.94;96669.59;109008;1255;22616;-79
2023/12/27 01:05:53;;;;;;;1.40;0.80;;;;;;;5.16;89.81;96666.80;108977;1264;24219;-79
2023/12/27 01:08:27;;;;;;;2.50;0.60;;;;;;;5.12;89.62;96659.65;108995;1271;25949;-79
2023/12/27 01:11:00;;;;;;;0.70;0.60;;;;;;;5.10;89.42;96669.56;108997;1271;28938;-79
2023/12/27 01:13:31;;;;;;;0.60;0.60;;;;;;;5.08;89.12;96664.33;108971;1271;22594;-79
2023/12/27 01:16:03;;;;;;;2.80;0.90;;;;;;;5.03;88.84;96662.25;108997;1271;25510;-79
2023/12/27 01:18:34;;;;;;;1.80;0.90;;;;;;;4.97;88.87;96671.52;109016;1271;23793;-79
2023/12/27 01:21:05;;;;;;;2.70;0.60;;;;;;;4.93;88.96;96671.21;108998;1271;24104;-79
2023/12/27 01:23:36;;;;;;;0.80;0.60;;;;;;;4.95;88.67;96678.01;108995;1271;22612;-79
2023/12/27 01:26:07;;;;;;;1.20;0.50;;;;;;;4.95;88.41;96670.61;108972;1268;22676;-79
2023/12/27 01:28:38;;;;;;;2.10;0.70;;;;;;;5.01;88.11;96684.86;108961;1271;23851;-79
2023/12/27 01:31:10;;;;;;;4.40;0.90;;;;;;;5.00;87.52;96688.37;108975;1265;24200;-78
2023/12/27 01:33:42;;;;;;;1.20;0.80;;;;;;;4.97;87.58;96690.39;108975;1271;22700;-79
2023/12/27 01:36:17;;;;;;;1.00;0.60;;;;;;;4.96;87.23;96688.02;109000;1271;22524;-78
2023/12/27 01:38:50;;;;;;;1.40;0.50;;;;;;;4.96;86.71;96697.67;108980;1271;25426;-78
2023/12/27 01:41:23;;;;;;;1.40;0.70;;;;;;;4.92;86.71;96698.60;108974;1271;24568;-78
2023/12/27 01:43:57;;;;;;;2.20;0.60;;;;;;;4.83;86.85;96703.25;109003;1271;24367;-78
2023/12/27 01:46:28;;;;;;;0.90;0.50;;;;;;;4.85;86.65;96706.42;108972;1271;23803;-78
2023/12/27 01:49:00;;;;;;;1.00;0.60;;;;;;;4.83;86.40;96711.82;108984;1271;25255;-78
2023/12/27 01:51:31;;;;;;;1.40;0.50;;;;;;;4.80;86.43;96712.29;108955;1271;25426;-79
2023/12/27 01:54:02;;;;;;;2.90;0.90;;;;;;;4.79;86.58;96714.80;108963;1271;22685;-78
2023/12/27 01:56:33;;;;;;;0.80;0.40;;;;;;;4.78;86.37;96717.30;108960;1271;22750;-78
2023/12/27 01:59:07;;;;;;;1.20;0.60;;;;;;;4.80;86.42;96717.19;108988;1271;22546;-78
2023/12/27 02:01:38;;;;;;;2.10;0.80;;;;;;;4.86;86.63;96714.16;109019;1271;22529;-78
2023/12/27 02:04:11;;;;;;;2.90;1.60;;;;;;;4.88;86.62;96717.08;109011;1271;24248;-78
2023/12/27 02:06:42;;;;;;;2.50;0.80;;;;;;;4.84;86.45;96719.86;108984;1271;22542;-78
2023/12/27 02:09:13;;;;;;;4.00;0.70;;;;;;;4.83;86.21;96719.90;108941;1271;24299;-78
2023/12/27 02:11:46;;;;;;;0.70;0.50;;;;;;;4.87;85.89;96720.65;108966;1250;22539;-78
2023/12/27 02:14:16;;;;;;;1.70;1.00;;;;;;;4.90;85.96;96728.04;109000;1265;24180;-78
2023/12/27 02:16:51;;;;;;;2.00;0.70;;;;;;;4.91;85.94;96730.00;108958;1265;22514;-79
2023/12/27 02:19:26;;;;;;;1.20;0.50;;;;;;;4.90;85.91;96728.30;108976;1271;22817;-78
2023/12/27 02:21:58;;;;;;;1.70;0.80;;;;;;;4.87;85.95;96742.60;108946;1248;22642;-78
2023/12/27 02:24:36;;;;;;;3.10;0.80;;;;;;;4.86;86.15;96748.31;108980;1271;22525;-78
2023/12/27 02:27:08;;;;;;;2.40;0.90;;;;;;;4.84;86.07;96752.17;108998;1264;22514;-78
2023/12/27 02:29:38;;;;;;;2.10;0.70;;;;;;;4.82;85.74;96745.89;108943;1271;22581;-78
2023/12/27 02:32:09;;;;;;;1.70;0.70;;;;;;;4.77;85.66;96748.11;108957;1269;23395;-78
2023/12/27 02:34:40;;;;;;;2.50;0.80;;;;;;;4.72;85.42;96747.83;108914;1264;24199;-76
2023/12/27 02:37:11;;;;;;;1.20;0.60;;;;;;;4.68;85.42;96746.76;108949;1271;24331;-78
2023/12/27 02:39:42;;;;;;;0.80;0.50;;;;;;;4.68;85.12;96746.23;109016;1271;25937;-78
2023/12/27 02:42:16;;;;;;;1.50;0.60;;;;;;;4.67;84.50;96748.91;108957;1266;22987;-78
2023/12/27 02:44:50;;;;;;;2.40;0.80;;;;;;;4.67;84.17;96746.90;108942;1271;22537;-78
2023/12/27 02:47:20;;;;;;;1.10;0.50;;;;;;;4.66;84.13;96756.29;108956;1264;22530;-79
2023/12/27 02:49:51;;;;;;;2.40;0.80;;;;;;;4.62;83.95;96749.63;108972;1271;22540;-78
2023/12/27 02:52:22;;;;;;;1.40;0.70;;;;;;;4.63;83.92;96762.00;108954;1264;22534;-78
2023/12/27 02:54:55;;;;;;;1.00;0.40;;;;;;;4.64;83.96;96754.10;108959;1268;22547;-78
2023/12/27 02:57:27;;;;;;;1.10;0.50;;;;;;;4.71;82.94;96754.80;109028;1267;25340;-78
2023/12/27 02:59:58;;;;;;;2.00;0.40;;;;;;;4.79;82.28;96753.78;108944;1271;23782;-78
2023/12/27 03:02:29;;;;;;;3.10;0.80;;;;;;;4.81;81.13;96751.97;109001;1265;22479;-78
2023/12/27 03:05:01;;;;;;;1.30;0.60;;;;;;;4.86;80.29;96762.02;108975;1264;22556;-78
2023/12/27 03:07:34;;;;;;;1.60;0.40;;;;;;;4.85;79.95;96759.70;108940;1265;22521;-78
2023/12/27 03:10:10;;;;;;;3.00;0.80;;;;;;;4.88;78.15;96765.48;108898;1268;24196;-78
2023/12/27 03:12:41;;;;;;;1.20;1.10;;;;;;;4.92;78.15;96771.63;109058;1248;22571;-78
2023/12/27 03:15:15;;;;;;;3.00;0.60;;;;;;;4.94;77.10;96776.25;108942;1271;22894;-78
2023/12/27 03:17:49;;;;;;;3.20;0.90;;;;;;;4.96;77.32;96780.06;108975;1271;22778;-78
2023/12/27 03:20:20;;;;;;;0.50;0.20;;;;;;;4.92;77.04;96778.31;108849;1264;22604;-78
2023/12/27 03:22:53;;;;;;;2.10;0.70;;;;;;;4.99;76.81;96784.47;108799;1264;124541;-78
2023/12/27 03:25:27;;;;;;;1.70;0.80;;;;;;;5.00;76.99;96788.31;108952;1248;22535;-78
2023/12/27 03:28:00;;;;;;;1.70;0.50;;;;;;;5.01;76.49;96778.77;108890;1271;22548;-78
2023/12/27 03:30:31;;;;;;;3.40;0.80;;;;;;;5.10;74.56;96784.33;108904;1265;22639;-78
2023/12/27 03:33:03;;;;;;;1.80;0.60;;;;;;;5.14;75.18;96797.16;108908;1263;22515;-78
2023/12/27 03:35:33;;;;;;;1.60;0.40;;;;;;;5.13;74.60;96790.37;108908;1271;25297;-78
2023/12/27 03:38:05;;;;;;;0.90;0.60;;;;;;;5.16;73.76;96785.52;108921;1271;22522;-78
2023/12/27 03:40:36;;;;;;;1.00;0.50;;;;;;;5.14;73.84;96792.33;108912;1265;31719;-78
2023/12/27 03:43:07;;;;;;;3.00;0.60;;;;;;;5.10;74.48;96801.73;108930;1271;22578;-78
2023/12/27 03:45:39;;;;;;;0.50;0.30;;;;;;;5.09;74.67;96803.40;108934;1265;22632;-78
2023/12/27 03:48:10;;;;;;;2.60;0.90;;;;;;;5.08;74.68;96813.02;108952;1271;23801;-78
2023/12/27 03:50:41;;;;;;;2.30;0.70;;;;;;;5.07;74.74;96807.60;108854;1265;22521;-78
2023/12/27 03:53:12;;;;;;;0.80;0.50;;;;;;;5.03;74.80;96798.83;108891;1268;24893;-78
2023/12/27 03:55:45;;;;;;;2.20;0.70;;;;;;;4.95;74.74;96802.79;108948;1264;22621;-78
2023/12/27 03:58:17;;;;;;;0.20;0.20;;;;;;;4.88;74.99;96810.48;108942;1271;22545;-78
2023/12/27 04:00:50;;;;;;;3.20;0.80;;;;;;;4.82;75.00;96814.60;108941;1264;23093;-77
2023/12/27 04:03:24;;;;;;;1.50;0.40;;;;;;;4.77;75.39;96816.66;108926;1268;23379;-78
2023/12/27 04:05:56;;;;;;;1.30;0.50;;;;;;;4.80;75.67;96824.97;108962;1271;22920;-78
2023/12/27 04:08:27;;;;;;;2.50;0.60;;;;;;;4.80;75.84;96837.73;108963;1271;22846;-78
2023/12/27 04:10:58;;;;;;;2.00;0.70;;;;;;;4.84;75.64;96839.63;108918;1259;24263;-78
2023/12/27 04:13:29;;;;;;;1.60;0.60;;;;;;;4.90;75.68;96854.66;108935;1271;22537;-78
2023/12/27 04:16:00;;;;;;;1.70;0.80;;;;;;;4.91;75.80;96869.80;108983;1271;24235;-78
2023/12/27 04:18:31;;;;;;;1.00;0.50;;;;;;;4.85;75.98;96873.38;108940;1271;22508;-78
2023/12/27 04:21:02;;;;;;;2.40;0.70;;;;;;;4.67;77.06;96880.08;108936;1260;23645;-78
2023/12/27 04:23:33;;;;;;;1.90;0.80;;;;;;;4.48;78.55;96886.70;108967;1248;22557;-78
2023/12/27 04:26:04;;;;;;;1.60;1.00;;;;;;;4.33;79.99;96869.85;108950;1259;22552;-78
2023/12/27 04:28:35;;;;;;;1.00;0.50;;;;;;;4.27;80.38;96886.78;108949;1264;25459;-79
2023/12/27 04:31:06;;;;;;;2.30;1.00;;;;;;;4.24;80.95;96891.73;108968;1271;24187;-79
2023/12/27 04:33:37;;;;;;;1.70;0.70;;;;;;;4.28;81.10;96890.85;108935;1271;22621;-79
2023/12/27 04:36:09;;;;;;;3.10;0.80;;;;;;;4.35;80.86;96898.80;108912;1271;25953;-79
2023/12/27 04:38:40;;;;;;;1.80;0.90;;;;;;;4.39;80.71;96897.02;108927;1264;22626;-79
2023/12/27 04:41:11;;;;;;;1.40;1.10;;;;;;;4.37;80.90;96913.89;108907;1259;26745;-79
2023/12/27 04:43:42;;;;;;;1.50;0.90;;;;;;;4.33;80.96;96916.89;108933;1271;22637;-79
2023/12/27 04:46:18;;;;;;;1.90;0.80;;;;;;;4.29;81.25;96902.73;108968;1271;22636;-79
2023/12/27 04:48:51;;;;;;;2.20;1.50;;;;;;;4.26;81.32;96915.95;108980;1248;22631;-79
2023/12/27 04:51:22;;;;;;;0.80;0.70;;;;;;;4.22;81.45;96913.43;108947;1271;24317;-79
2023/12/27 04:53:54;;;;;;;3.50;1.20;;;;;;;4.21;81.56;96915.34;108894;1250;22562;-79
2023/12/27 04:56:25;;;;;;;2.90;1.20;;;;;;;4.19;81.55;96918.48;108920;1266;22589;-80
2023/12/27 04:58:58;;;;;;;0.60;0.60;;;;;;;4.17;81.45;96922.73;108950;1271;22677;-79
2023/12/27 05:01:30;;;;;;;3.00;1.20;;;;;;;4.15;81.84;96927.79;108932;1271;22547;-78
2023/12/27 05:04:00;;;;;;;2.60;1.10;;;;;;;4.16;81.91;96920.00;108915;1266;22547;-78
2023/12/27 05:06:32;;;;;;;3.80;1.40;;;;;;;4.16;81.94;96932.75;108908;1266;22543;-78
2023/12/27 05:09:04;;;;;;;3.70;1.20;;;;;;;4.12;81.83;96934.55;108910;1248;22555;-79
2023/12/27 05:11:36;;;;;;;2.90;0.90;;;;;;;4.10;81.39;96935.46;108984;1248;22651;-79
2023/12/27 05:14:07;;;;;;;2.30;1.00;;;;;;;4.07;81.02;96937.23;108943;1271;23396;-79
2023/12/27 05:16:38;;;;;;;2.60;0.80;;;;;;;4.06;80.97;96944.95;108923;1271;22509;-79
2023/12/27 05:19:09;;;;;;;2.50;0.90;;;;;;;4.02;80.77;96945.34;108911;1271;24003;-79
2023/12/27 05:21:40;;;;;;;2.20;0.90;;;;;;;4.01;80.53;96945.89;108900;1264;24942;-79
2023/12/27 05:24:11;;;;;;;1.30;0.90;;;;;;;4.01;80.49;96952.77;108901;1265;24178;-79
2023/12/27 05:26:43;;;;;;;3.30;0.80;;;;;;;3.99;80.66;96942.34;108901;1264;23243;-79
2023/12/27 05:29:16;;;;;;;2.20;1.10;;;;;;;3.98;80.72;96947.82;108871;1271;30028;-79
2023/12/27 05:31:47;;;;;;;2.60;1.30;;;;;;;3.93;80.83;96945.27;108879;1271;22527;-79
2023/12/27 05:34:20;;;;;;;3.00;1.50;;;;;;;3.89;81.27;96957.58;108915;1271;22524;-79
2023/12/27 05:36:52;;;;;;;2.20;1.20;;;;;;;3.84;81.43;96956.52;108903;1271;22535;-78
2023/12/27 05:39:28;;;;;;;4.80;1.30;;;;;;;3.80;81.77;96970.05;108910;1271;22538;-78
2023/12/27 05:42:01;;;;;;;8.10;1.60;;;;;;;3.76;82.07;96966.23;108922;1271;22588;-78
2023/12/27 05:44:32;;;;;;;1.90;1.10;;;;;;;3.74;82.74;96969.64;108897;1265;22575;-78
2023/12/27 05:47:06;;;;;;;1.20;0.90;;;;;;;3.73;82.87;96970.92;108934;1264;23872;-78
2023/12/27 05:49:37;;;;;;;1.90;1.50;;;;;;;3.68;83.00;96982.30;108935;1267;22513;-78
2023/12/27 05:52:08;;;;;;;3.20;1.30;;;;;;;3.61;82.95;96986.46;108925;1266;22537;-78
2023/12/27 05:54:39;;;;;;;3.00;1.00;;;;;;;3.57;82.92;96991.11;108926;1271;23771;-78
2023/12/27 05:57:10;;;;;;;2.70;1.10;;;;;;;3.57;83.12;96988.33;108901;1263;22552;-79
2023/12/27 05:59:41;;;;;;;3.60;1.30;;;;;;;3.58;82.87;97006.70;108891;1265;22913;-79
2023/12/27 06:02:12;;;;;;;1.80;0.90;;;;;;;3.55;82.53;97019.67;108893;1271;25418;-79
2023/12/27 06:04:47;;;;;;;3.90;1.50;;;;;;;3.49;82.20;97019.09;108841;1264;22534;-79
2023/12/27 06:07:23;;;;;;;0.70;0.70;;;;;;;3.45;81.91;97021.14;108905;1265;22540;-79
2023/12/27 06:09:56;;;;;;;1.90;0.70;;;;;;;3.40;81.42;97015.84;108829;1271;23964;-79
2023/12/27 06:12:29;;;;;;;0.90;0.50;;;;;;;3.38;80.67;97026.91;108898;1271;22558;-79
2023/12/27 06:15:04;;;;;;;1.00;0.50;;;;;;;3.33;79.70;97028.42;108921;1265;22530;-79
2023/12/27 06:17:35;;;;;;;2.00;0.60;;;;;;;3.29;79.01;97034.77;108981;1271;25298;-79
2023/12/27 06:20:08;;;;;;;0.90;0.70;;;;;;;3.25;78.03;97037.23;108889;1268;23352;-79
2023/12/27 06:22:40;;;;;;;2.00;0.60;;;;;;;3.22;77.49;97036.46;108918;1271;22974;-79
2023/12/27 06:25:11;;;;;;;3.60;0.90;;;;;;;3.18;77.60;97049.48;108882;1271;25409;-79
2023/12/27 06:27:42;;;;;;;0.60;0.50;;;;;;;3.13;77.68;97055.65;108903;1271;22528;-79
2023/12/27 06:30:15;;;;;;;3.10;0.70;;;;;;;3.12;77.28;97055.38;108892;1271;24709;-78
2023/12/27 06:32:46;;;;;;;3.20;0.50;;;;;;;3.10;76.59;97064.66;108921;1265;22535;-79
2023/12/27 06:35:20;;;;;;;5.20;1.40;;;;;;;3.07;76.62;97067.79;108910;1266;23855;-78
2023/12/27 06:37:52;;;;;;;3.20;0.90;;;;;;;3.05;76.73;97074.79;108924;1271;22644;-78
2023/12/27 06:40:25;;;;;;;1.80;0.60;;;;;;;3.00;76.71;97071.71;108924;1271;22510;-78
2023/12/27 06:42:58;;;;;;;2.00;0.80;;;;;;;3.00;76.37;97076.50;108879;1271;22578;-78
2023/12/27 06:45:29;;;;;;;2.00;0.60;;;;;;;2.99;76.38;97086.23;108975;1264;22665;-78
2023/12/27 06:48:02;;;;;;;2.80;1.00;;;;;;;2.97;76.32;97085.77;108921;1248;22514;-79
2023/12/27 06:50:33;;;;;;;3.30;1.10;;;;;;;2.96;76.39;97097.05;108850;1264;22789;-79
2023/12/27 06:53:05;;;;;;;2.00;1.10;;;;;;;2.93;76.65;97096.78;108861;1271;22686;-79
2023/12/27 06:55:36;;;;;;;1.90;0.60;;;;;;;2.90;76.78;97093.45;108911;1263;22537;-79
2023/12/27 06:58:07;;;;;;;1.90;1.00;;;;;;;2.88;76.97;97095.31;108877;1271;22527;-79
2023/12/27 07:00:39;;;;;;;1.50;0.70;;;;;;;2.92;77.00;97105.23;108928;1258;22550;-79
2023/12/27 07:03:10;;;;;;;1.90;0.80;;;;;;;2.96;77.15;97097.48;108880;1264;22986;-79
2023/12/27 07:05:41;;;;;;;0.70;0.40;;;;;;;3.00;77.05;97111.64;108908;1271;24484;-79
2023/12/27 07:08:13;;;;;;;2.60;0.80;;;;;;;3.00;77.05;97115.10;108884;1271;22514;-78
2023/12/27 07:10:47;;;;;;;2.00;0.70;;;;;;;3.03;77.29;97123.29;108886;1271;22716;-78
2023/12/27 07:13:19;;;;;;;1.30;0.90;;;;;;;3.03;77.27;97122.89;108930;1271;22709;-80
2023/12/27 07:15:50;;;;;;;1.00;0.80;;;;;;;3.03;77.31;97127.23;108900;1264;22520;-79
2023/12/27 07:18:26;;;;;;;2.10;0.90;;;;;;;3.06;77.36;97136.75;108856;1271;22587;-79
2023/12/27 07:20:59;;;;;;;2.70;1.10;;;;;;;3.11;77.60;97142.52;108872;1250;22688;-79
2023/12/27 07:23:30;;;;;;;2.70;0.80;;;;;;;3.14;77.40;97149.98;108888;1265;22526;-80
2023/12/27 07:26:03;;;;;;;1.50;1.00;;;;;;;3.14;77.45;97159.52;108919;1264;22538;-79
2023/12/27 07:28:34;;;;;;;2.50;1.00;;;;;;;3.18;77.53;97155.45;108938;1271;22531;-80
2023/12/27 07:31:06;;;;;;;3.50;1.30;;;;;;;3.23;77.51;97162.93;108854;1265;23826;-80
2023/12/27 07:33:39;;;;;;;3.00;1.20;;;;;;;3.26;77.60;97167.55;108991;1248;22524;-79
2023/12/27 07:36:11;;;;;;;4.90;1.60;;;;;;;3.31;77.77;97169.14;108911;1271;22578;-80
2023/12/27 07:38:42;;;;;;;3.40;1.00;;;;;;;3.34;77.84;97169.02;108960;1265;22543;-80
2023/12/27 07:41:18;;;;;;;4.10;1.10;;;;;;;3.37;77.88;97171.25;108994;1267;23861;-81
2023/12/27 07:43:52;;;;;;;2.60;1.40;;;;;;;3.39;77.93;97172.10;108956;1265;22518;-80
2023/12/27 07:46:28;;;;;;;4.70;1.40;;;;;;;3.40;78.07;97179.05;108914;1269;23801;-80
2023/12/27 07:48:59;;;;;;;3.50;1.10;;;;;;;3.56;78.24;97187.01;108932;1265;22531;-81
2023/12/27 07:51:31;;;;;;;1.40;0.50;;;;;;;3.77;77.18;97181.34;108936;1271;23630;-80
2023/12/27 07:54:02;;;;;;;2.00;0.80;;;;;;;3.93;75.92;97190.80;108876;1271;24984;-80
2023/12/27 07:56:34;;;;;;;4.20;1.00;;;;;;;4.11;75.64;97198.00;108867;1271;25431;-80
2023/12/27 07:59:06;;;;;;;2.00;0.80;;;;;;;4.22;73.83;97201.52;108946;1271;22472;-79
2023/12/27 08:05:02;;;;;;;2.70;0.70;;;;;;;4.49;73.20;97216.09;108941;1268;24412;-80
2023/12/27 08:07:33;;;;;;;4.90;1.00;;;;;;;4.39;71.77;97218.65;108966;1271;25662;-78
2023/12/27 08:10:06;;;;;;;2.70;1.00;;;;;;;4.36;72.20;97219.59;108883;1271;26748;-79
2023/12/27 08:12:40;;;;;;;2.20;0.60;;;;;;;4.41;72.28;97221.13;108930;1271;22618;-79
2023/12/27 08:15:12;;;;;;;2.40;0.80;;;;;;;4.36;71.77;97224.36;108898;1270;22542;-79
2023/12/27 08:17:46;;;;;;;1.60;0.50;;;;;;;4.39;72.04;97235.63;108897;1271;23699;-79
2023/12/27 08:20:20;;;;;;;1.40;0.80;;;;;;;4.45;71.30;97240.70;108883;1265;24439;-79
2023/12/27 08:22:52;;;;;;;1.50;0.60;;;;;;;4.38;69.94;97226.90;108906;1271;25348;-79
2023/12/27 08:25:27;;;;;;;1.40;0.80;;;;;;;4.29;69.85;97245.85;108873;1264;22517;-79
2023/12/27 08:27:58;;;;;;;4.40;1.30;;;;;;;4.33;70.59;97253.10;108945;1266;22554;-78
2023/12/27 08:30:29;;;;;;;2.80;0.90;;;;;;;4.43;70.77;97252.89;108951;1264;22683;-79
2023/12/27 08:33:01;;;;;;;4.70;1.20;;;;;;;4.47;70.02;97254.89;108975;1271;22628;-78
2023/12/27 08:35:32;;;;;;;4.20;1.10;;;;;;;4.43;68.44;97258.30;108974;1268;22526;-78
2023/12/27 08:38:06;;;;;;;1.30;0.50;;;;;;;4.46;69.25;97268.02;108979;1271;22586;-78
2023/12/27 08:40:39;;;;;;;2.80;0.50;;;;;;;4.40;68.56;97271.42;108969;1259;23349;-78
2023/12/27 08:43:11;;;;;;;1.60;0.50;;;;;;;4.35;68.03;97277.51;109012;1268;24912;-78
2023/12/27 08:45:42;;;;;;;1.60;0.90;;;;;;;4.36;68.20;97281.38;108955;1268;22667;-78
2023/12/27 08:48:13;;;;;;;1.80;0.50;;;;;;;4.41;67.99;97278.20;108992;1271;22518;-79
2023/12/27 08:50:44;;;;;;;2.40;0.80;;;;;;;4.34;66.84;97280.42;108918;1265;25952;-79
2023/12/27 08:53:18;;;;;;;1.00;0.40;;;;;;;4.25;66.25;97277.20;108986;1264;22523;-79
2023/12/27 08:55:51;;;;;;;1.30;0.70;;;;;;;4.15;66.07;97284.69;108957;1268;23185;-79
2023/12/27 08:58:22;;;;;;;5.50;1.30;;;;;;;4.10;65.54;97286.17;108931;1268;24222;-80
2023/12/27 09:00:58;;;;;;;3.90;1.10;;;;;;;4.00;65.10;97293.67;108918;1264;23262;-79
2023/12/27 09:03:29;;;;;;;2.30;0.70;;;;;;;3.94;65.10;97305.04;108971;1268;22497;-79
2023/12/27 09:06:00;;;;;;;3.30;0.80;;;;;;;3.85;65.46;97306.55;108919;1271;22673;-78
2023/12/27 09:08:32;;;;;;;6.10;0.80;;;;;;;3.78;65.67;97301.73;109031;1268;23856;-80
2023/12/27 09:11:04;;;;;;;4.50;0.70;;;;;;;3.73;65.44;97304.58;108963;1250;23476;-80
2023/12/27 09:13:35;;;;;;;3.20;0.80;;;;;;;3.80;65.27;97280.70;108975;1267;22524;-80
2023/12/27 09:16:09;;;;;;;2.10;1.00;;;;;;;3.85;64.66;97294.08;109086;1268;25333;-80
2023/12/27 09:18:40;;;;;;;2.10;1.10;;;;;;;3.80;64.40;97305.63;109007;1265;22517;-80
2023/12/27 09:21:13;;;;;;;2.10;1.10;;;;;;;3.74;64.86;97307.34;108979;1264;24183;-80
2023/12/27 09:23:44;;;;;;;3.70;1.60;;;;;;;3.77;65.02;97307.15;108973;1266;22514;-80
2023/12/27 09:26:23;;;;;;;3.30;0.80;;;;;;;3.83;65.20;97303.04;108926;1265;24209;-79
2023/12/27 09:28:56;;;;;;;0.30;0.20;;;;;;;3.88;65.59;97306.91;109010;1266;22544;-79
2023/12/27 09:31:30;;;;;;;8.00;1.50;;;;;;;3.92;65.86;97309.70;108899;1264;25949;-79
2023/12/27 09:34:02;;;;;;;3.20;1.10;;;;;;;4.11;66.35;97310.82;108831;1266;24258;-81
2023/12/27 09:36:33;;;;;;;2.40;1.00;;;;;;;4.25;66.53;97309.01;108917;1268;22558;-80
2023/12/27 09:39:05;;;;;;;1.80;0.90;;;;;;;4.35;66.52;97303.50;108916;1268;22585;-80
2023/12/27 09:41:36;;;;;;;3.00;0.80;;;;;;;4.47;66.70;97305.09;108872;1264;22555;-80
2023/12/27 09:44:10;;;;;;;2.40;1.00;;;;;;;4.45;66.05;97301.89;108900;1271;22524;-80
2023/12/27 09:46:42;;;;;;;5.30;1.00;;;;;;;4.38;65.17;97301.55;108953;1268;22537;-80
2023/12/27 09:49:16;;;;;;;1.80;1.00;;;;;;;4.32;63.73;97309.15;108939;1266;26379;-80
2023/12/27 09:51:50;;;;;;;2.00;1.20;;;;;;;4.17;63.64;97304.70;109023;1268;22524;-79
2023/12/27 09:54:21;;;;;;;3.60;2.10;;;;;;;4.03;64.03;97310.53;108884;1271;22582;-80
2023/12/27 09:56:54;;;;;;;1.00;0.60;;;;;;;4.12;64.58;97317.19;108867;1271;22514;-80
2023/12/27 09:59:30;;;;;;;3.00;0.90;;;;;;;4.16;63.36;97302.69;108982;1268;22533;-82
2023/12/27 10:02:04;;;;;;;2.60;0.50;;;;;;;4.20;63.34;97309.59;108969;1271;23952;-80
2023/12/27 10:04:42;;;;;;;4.60;0.70;;;;;;;4.28;62.96;97306.27;108971;1264;24261;-79
2023/12/27 10:07:16;;;;;;;2.50;1.10;;;;;;;4.41;62.29;97308.20;108968;1271;22514;-75
2023/12/27 10:09:50;;;;;;;3.20;0.50;;;;;;;4.53;61.96;97305.51;109024;1267;22532;-79
2023/12/27 10:12:22;;;;;;;1.60;0.50;;;;;;;4.56;61.52;97308.73;108972;1268;23274;-80
2023/12/27 10:14:57;;;;;;;2.80;0.70;;;;;;;4.57;61.76;97307.02;108987;1266;23774;-80
2023/12/27 10:20:48;;;;;;;2.30;0.50;;;;;;;4.70;61.06;97301.12;108703;1275;24215;-81
2023/12/27 10:23:19;;;;;;;1.00;0.70;;;;;;;4.76;60.78;97299.85;108714;1271;25021;-80
2023/12/27 10:25:53;;;;;;;5.50;0.90;;;;;;;4.83;60.94;97299.77;108595;1275;22649;-80
2023/12/27 10:28:27;;;;;;;3.30;1.30;;;;;;;4.89;60.87;97291.14;108607;1271;22733;-80
2023/12/27 10:30:58;;;;;;;2.70;0.60;;;;;;;4.91;60.33;97291.47;108729;1275;24824;-80
2023/12/27 10:33:39;;;;;;;1.70;1.10;;;;;;;4.95;60.45;97296.63;108668;1275;22525;-81
2023/12/27 10:36:12;;;;;;;1.80;0.70;;;;;;;4.97;60.17;97292.08;108779;1275;22544;-80
2023/12/27 10:38:46;;;;;;;3.70;0.90;;;;;;;5.08;60.77;97303.34;108556;1271;22553;-80
2023/12/27 10:41:23;;;;;;;3.40;1.10;;;;;;;5.20;60.38;97290.17;108543;1275;22537;-80
2023/12/27 10:43:58;;;;;;;4.60;0.90;;;;;;;5.21;59.58;97285.84;108633;1275;22531;-80
2023/12/27 10:46:29;;;;;;;1.30;0.60;;;;;;;5.15;58.70;97277.23;108724;1275;23702;-80
2023/12/27 10:49:06;;;;;;;2.30;0.60;;;;;;;5.05;58.74;97288.39;108582;1269;22542;-80
2023/12/27 10:51:40;;;;;;;1.50;0.70;;;;;;;5.10;59.37;97278.95;108585;1275;23608;-81
2023/12/27 10:54:14;;;;;;;2.20;0.90;;;;;;;5.11;59.17;97275.56;108524;1271;22535;-80
2023/12/27 10:56:51;;;;;;;2.50;0.90;;;;;;;5.12;58.76;97277.30;108578;1275;22543;-80
2023/12/27 10:59:24;;;;;;;3.60;1.10;;;;;;;5.18;58.35;97271.08;108885;1268;22595;-80
2023/12/27 11:01:59;;;;;;;1.90;1.20;;;;;;;5.25;58.85;97266.33;108876;1268;22840;-80
2023/12/27 11:04:31;;;;;;;2.20;1.00;;;;;;;5.31;58.39;97267.02;108931;1268;22584;-79
2023/12/27 11:07:06;;;;;;;2.10;1.00;;;;;;;5.30;58.15;97262.54;108844;1265;23588;-79
2023/12/27 11:09:39;;;;;;;1.80;0.90;;;;;;;5.32;58.35;97263.59;108941;1271;22518;-79
2023/12/27 11:12:11;;;;;;;4.30;1.00;;;;;;;5.44;58.69;97263.20;108913;1266;23869;-79
2023/12/27 11:14:43;;;;;;;1.70;0.80;;;;;;;5.51;57.91;97254.27;108893;1264;22835;-80
2023/12/27 11:17:18;;;;;;;1.60;0.90;;;;;;;5.53;57.79;97252.58;108912;1271;22514;-79
2023/12/27 11:19:52;;;;;;;1.70;1.10;;;;;;;5.54;58.50;97256.52;108989;1269;23665;-79
2023/12/27 11:22:24;;;;;;;1.30;0.70;;;;;;;5.60;57.97;97243.64;108866;1271;25481;-79
2023/12/27 11:24:58;;;;;;;2.60;1.20;;;;;;;5.61;57.84;97251.75;108918;1271;22699;-80
2023/12/27 11:27:29;;;;;;;3.90;1.50;;;;;;;5.67;58.72;97247.95;108903;1269;23847;-79
2023/12/27 11:30:09;;;;;;;4.70;1.30;;;;;;;5.74;58.34;97252.61;108844;1264;24311;-79
2023/12/27 11:32:42;;;;;;;3.60;1.40;;;;;;;5.81;58.82;97253.87;108821;1268;26019;-80
2023/12/27 11:35:29;;;;;;;3.60;0.80;;;;;;;5.89;58.78;97257.61;108929;1271;22526;-80
2023/12/27 11:38:20;;;;;;;2.20;1.10;;;;;;;5.89;58.22;97261.61;108791;1267;22520;-79
2023/12/27 11:40:54;;;;;;;1.70;0.80;;;;;;;5.94;58.71;97264.45;108781;1271;22535;-80
2023/12/27 11:43:28;;;;;;;2.00;0.80;;;;;;;5.89;57.80;97254.58;108823;1265;22770;-81
2023/12/27 11:46:01;;;;;;;2.80;1.00;;;;;;;5.83;57.52;97265.60;108936;1266;22520;-80
2023/12/27 11:48:37;;;;;;;1.70;0.80;;;;;;;5.85;57.46;97258.64;108914;1271;22560;-80
2023/12/27 11:51:27;;;;;;;1.70;0.80;;;;;;;5.88;57.88;97257.54;108982;1268;22600;-80
2023/12/27 11:53:59;;;;;;;2.80;0.70;;;;;;;5.93;57.61;97254.59;108934;1264;22515;-80
2023/12/27 11:56:35;;;;;;;1.40;0.50;;;;;;;5.93;58.01;97249.90;108978;1268;22614;-80
2023/12/27 11:59:07;;;;;;;3.60;1.60;;;;;;;5.96;57.82;97247.21;109011;1264;22521;-79
2023/12/27 12:01:40;;;;;;;2.00;0.80;;;;;;;5.93;57.72;97248.89;108880;1271;22601;-79
2023/12/27 12:04:38;;;;;;;2.60;0.60;;;;;;;5.92;57.89;97242.40;108895;1269;22622;-79